createdAt,value
2018-07-01T00:00:50.938Z,47.17
2018-07-01T00:01:50.887Z,46.79
2018-07-01T00:02:50.898Z,46.98
2018-07-01T00:03:50.915Z,46.98
2018-07-01T00:04:50.937Z,46.89
2018-07-01T00:05:50.947Z,47.08
2018-07-01T00:06:50.966Z,46.89
2018-07-01T00:08:51.299Z,46.89
2018-07-01T00:09:51.070Z,47.15
2018-07-01T00:10:51.752Z,47.34
2018-07-01T00:11:51.045Z,47.44
2018-07-01T00:12:51.068Z,47.53
2018-07-01T00:13:51.082Z,47.44
2018-07-01T00:14:51.098Z,47.82
2018-07-01T00:15:51.111Z,48.02
2018-07-01T00:16:51.126Z,47.15
2018-07-01T00:17:51.142Z,47.56
2018-07-01T00:18:51.160Z,47.94
2018-07-01T00:19:51.189Z,47.08
2018-07-01T00:20:51.215Z,47.08
2018-07-01T00:21:51.208Z,46.89
2018-07-01T00:22:51.278Z,47.08
2018-07-01T00:23:51.249Z,47.53
2018-07-01T00:24:51.256Z,47.82
2018-07-01T00:25:51.290Z,47.92
2018-07-01T00:26:51.374Z,48.61
2018-07-01T00:27:51.309Z,47.66
2018-07-01T00:28:51.326Z,47.53
2018-07-01T00:29:51.345Z,47.75
2018-07-01T00:30:51.356Z,47.66
2018-07-01T00:31:51.386Z,47.46
2018-07-01T00:32:51.386Z,47.36
2018-07-01T00:33:51.409Z,47.44
2018-07-01T00:34:51.420Z,47.92
2018-07-01T00:35:51.465Z,48.21
2018-07-01T00:36:51.457Z,48.49
2018-07-01T00:37:51.470Z,48.59
2018-07-01T00:38:51.488Z,48.88
2018-07-01T00:39:51.502Z,48.40
2018-07-01T00:40:51.517Z,48.59
2018-07-01T00:41:51.535Z,48.79
2018-07-01T00:42:51.550Z,49.05
2018-07-01T00:43:51.673Z,49.33
2018-07-01T00:44:51.956Z,49.72
2018-07-01T00:45:51.631Z,49.15
2018-07-01T00:46:51.615Z,49.15
2018-07-01T00:47:51.637Z,49.62
2018-07-01T00:48:53.848Z,49.52
2018-07-01T00:49:51.668Z,49.82
2018-07-01T00:50:51.689Z,49.24
2018-07-01T00:51:51.701Z,49.82
2018-07-01T00:52:51.716Z,49.72
2018-07-01T00:53:51.734Z,49.62
2018-07-01T00:54:51.746Z,49.62
2018-07-01T00:55:51.760Z,49.62
2018-07-01T00:56:51.777Z,49.52
2018-07-01T00:57:51.793Z,49.33
2018-07-01T00:58:51.813Z,49.62
2018-07-01T00:59:51.830Z,50.20
2018-07-01T01:00:51.847Z,49.62
2018-07-01T01:01:51.860Z,49.52
2018-07-01T01:02:51.924Z,49.91
2018-07-01T01:03:51.891Z,50.01
2018-07-01T01:04:51.988Z,50.58
2018-07-01T01:05:51.927Z,50.58
2018-07-01T01:06:51.980Z,50.20
2018-07-01T01:07:51.958Z,49.43
2018-07-01T01:08:51.974Z,49.62
2018-07-01T01:09:51.987Z,49.62
2018-07-01T01:10:52.009Z,49.91
2018-07-01T01:11:52.022Z,49.91
2018-07-01T01:12:52.036Z,50.29
2018-07-01T01:14:52.950Z,49.52
2018-07-01T01:15:52.085Z,49.82
2018-07-01T01:16:52.102Z,50.49
2018-07-01T01:17:52.123Z,50.20
2018-07-01T01:18:52.237Z,50.01
2018-07-01T01:19:52.286Z,50.65
2018-07-01T01:20:52.172Z,51.14
2018-07-01T01:22:52.198Z,51.23
2018-07-01T01:23:52.262Z,51.04
2018-07-01T01:24:52.230Z,51.23
2018-07-01T01:25:52.245Z,51.42
2018-07-01T01:26:52.262Z,51.23
2018-07-01T01:27:52.279Z,51.23
2018-07-01T01:28:52.294Z,51.23
2018-07-01T01:29:52.312Z,52.38
2018-07-01T01:30:52.339Z,52.09
2018-07-01T01:31:52.353Z,51.14
2018-07-01T01:32:52.359Z,51.23
2018-07-01T01:33:52.378Z,51.32
2018-07-01T01:34:52.399Z,51.81
2018-07-01T01:35:52.408Z,51.61
2018-07-01T01:36:52.422Z,52.00
2018-07-01T01:37:52.442Z,52.19
2018-07-01T01:38:52.455Z,52.28
2018-07-01T01:39:52.471Z,51.97
2018-07-01T01:40:52.488Z,52.36
2018-07-01T01:41:52.505Z,52.67
2018-07-01T01:42:52.522Z,52.26
2018-07-01T01:43:52.661Z,52.36
2018-07-01T01:44:52.700Z,52.86
2018-07-01T01:45:52.752Z,52.55
2018-07-01T01:46:52.649Z,52.83
2018-07-01T01:47:52.621Z,52.76
2018-07-01T01:48:52.616Z,52.57
2018-07-01T01:49:52.632Z,52.95
2018-07-01T01:50:52.648Z,52.48
2018-07-01T01:51:52.764Z,52.67
2018-07-01T01:52:53.043Z,52.48
2018-07-01T01:53:52.788Z,52.57
2018-07-01T01:54:52.712Z,52.57
2018-07-01T01:55:52.752Z,52.28
2018-07-01T01:56:52.743Z,52.00
2018-07-01T01:57:52.761Z,52.16
2018-07-01T01:58:52.809Z,52.57
2018-07-01T01:59:52.791Z,52.48
2018-07-01T02:00:52.805Z,52.93
2018-07-01T02:01:52.826Z,52.74
2018-07-01T02:02:52.842Z,52.55
2018-07-01T02:03:52.857Z,53.12
2018-07-01T02:04:52.871Z,52.74
2018-07-01T02:05:52.887Z,52.93
2018-07-01T02:06:52.901Z,53.03
2018-07-01T02:07:52.919Z,53.03
2018-07-01T02:08:52.945Z,53.12
2018-07-01T02:09:52.950Z,53.03
2018-07-01T02:10:52.970Z,52.74
2018-07-01T02:11:52.985Z,53.03
2018-07-01T02:12:53.036Z,53.50
2018-07-01T02:13:53.016Z,52.74
2018-07-01T02:14:53.031Z,53.12
2018-07-01T02:15:53.058Z,53.03
2018-07-01T02:16:53.174Z,53.12
2018-07-01T02:17:53.099Z,53.77
2018-07-01T02:18:53.259Z,54.17
2018-07-01T02:19:53.114Z,53.89
2018-07-01T02:20:53.133Z,53.70
2018-07-01T02:21:53.147Z,53.79
2018-07-01T02:22:53.156Z,53.60
2018-07-01T02:23:53.178Z,54.15
2018-07-01T02:24:53.284Z,54.05
2018-07-01T02:25:53.214Z,54.05
2018-07-01T02:26:53.331Z,54.15
2018-07-01T02:27:53.261Z,53.96
2018-07-01T02:28:53.257Z,53.86
2018-07-01T02:29:53.271Z,54.44
2018-07-01T02:30:53.285Z,54.44
2018-07-01T02:31:53.367Z,54.53
2018-07-01T02:32:53.325Z,54.63
2018-07-01T02:33:53.344Z,54.63
2018-07-01T02:34:53.350Z,54.72
2018-07-01T02:35:53.560Z,54.63
2018-07-01T02:36:53.380Z,54.72
2018-07-01T02:37:53.442Z,54.72
2018-07-01T02:38:53.477Z,54.82
2018-07-01T02:39:53.430Z,54.72
2018-07-01T02:40:53.451Z,54.91
2018-07-01T02:41:53.479Z,54.53
2018-07-01T02:42:53.537Z,54.63
2018-07-01T02:43:53.495Z,55.21
2018-07-01T02:44:53.511Z,54.91
2018-07-01T02:45:53.527Z,54.72
2018-07-01T02:46:53.536Z,55.21
2018-07-01T02:47:53.556Z,55.21
2018-07-01T02:49:53.646Z,55.01
2018-07-01T02:50:53.676Z,55.11
2018-07-01T02:51:53.620Z,54.82
2018-07-01T02:52:53.638Z,55.01
2018-07-01T02:53:53.770Z,55.11
2018-07-01T02:54:53.664Z,54.91
2018-07-01T02:55:53.683Z,54.53
2018-07-01T02:56:54.160Z,54.53
2018-07-01T02:57:53.822Z,54.53
2018-07-01T02:58:53.813Z,55.21
2018-07-01T02:59:53.812Z,54.82
2018-07-01T03:00:53.759Z,55.11
2018-07-01T03:01:53.775Z,55.40
2018-07-01T03:02:53.791Z,55.11
2018-07-01T03:03:53.819Z,55.58
2018-07-01T03:04:53.826Z,55.49
2018-07-01T03:05:53.836Z,55.58
2018-07-01T03:06:53.871Z,55.87
2018-07-01T03:07:53.874Z,55.68
2018-07-01T03:08:53.884Z,55.49
2018-07-01T03:09:53.898Z,55.49
2018-07-01T03:10:53.920Z,55.68
2018-07-01T03:11:53.938Z,55.58
2018-07-01T03:12:53.951Z,55.78
2018-07-01T03:13:53.975Z,55.78
2018-07-01T03:14:53.983Z,55.68
2018-07-01T03:15:53.996Z,55.58
2018-07-01T03:16:54.039Z,55.97
2018-07-01T03:17:54.028Z,55.87
2018-07-01T03:18:54.040Z,56.13
2018-07-01T03:19:54.057Z,56.45
2018-07-01T03:20:54.084Z,56.35
2018-07-01T03:21:54.089Z,56.35
2018-07-01T03:22:54.248Z,56.35
2018-07-01T03:23:54.284Z,56.35
2018-07-01T03:24:54.398Z,56.61
2018-07-01T03:25:54.151Z,56.42
2018-07-01T03:26:54.167Z,56.99
2018-07-01T03:27:54.612Z,56.61
2018-07-01T03:28:54.203Z,56.93
2018-07-01T03:29:54.258Z,56.61
2018-07-01T03:30:54.330Z,56.99
2018-07-01T03:31:54.247Z,56.99
2018-07-01T03:32:54.262Z,57.38
2018-07-01T03:33:54.275Z,56.90
2018-07-01T03:34:54.326Z,57.19
2018-07-01T03:35:54.306Z,57.19
2018-07-01T03:36:54.702Z,57.57
2018-07-01T03:37:54.336Z,57.57
2018-07-01T03:38:54.383Z,57.38
2018-07-01T03:39:54.372Z,57.38
2018-07-01T03:40:54.384Z,57.38
2018-07-01T03:41:54.406Z,58.15
2018-07-01T03:42:54.418Z,58.24
2018-07-01T03:43:54.435Z,58.15
2018-07-01T03:44:54.456Z,58.15
2018-07-01T03:45:54.475Z,57.86
2018-07-01T03:46:54.478Z,57.95
2018-07-01T03:47:54.496Z,58.05
2018-07-01T03:48:54.514Z,58.15
2018-07-01T03:49:54.532Z,58.05
2018-07-01T03:50:54.542Z,57.95
2018-07-01T03:51:54.558Z,58.34
2018-07-01T03:52:54.583Z,58.34
2018-07-01T03:53:54.587Z,58.34
2018-07-01T03:54:54.658Z,58.05
2018-07-01T03:55:54.693Z,58.24
2018-07-01T03:56:54.653Z,58.05
2018-07-01T03:57:55.394Z,58.15
2018-07-01T03:58:55.422Z,58.24
2018-07-01T03:59:55.480Z,58.15
2018-07-01T04:00:55.191Z,58.44
2018-07-01T04:01:54.729Z,58.24
2018-07-01T04:02:54.733Z,58.53
2018-07-01T04:03:54.747Z,58.15
2018-07-01T04:04:54.759Z,58.05
2018-07-01T04:05:54.802Z,58.15
2018-07-01T04:06:54.791Z,58.44
2018-07-01T04:07:54.811Z,58.24
2018-07-01T04:08:54.821Z,58.34
2018-07-01T04:09:54.841Z,58.34
2018-07-01T04:10:54.854Z,58.72
2018-07-01T04:11:54.935Z,58.34
2018-07-01T04:12:54.886Z,58.24
2018-07-01T04:13:54.901Z,58.81
2018-07-01T04:14:54.924Z,58.24
2018-07-01T04:15:54.929Z,59.01
2018-07-01T04:16:54.955Z,58.62
2018-07-01T04:17:54.964Z,59.20
2018-07-01T04:18:54.977Z,59.01
2018-07-01T04:19:54.994Z,59.20
2018-07-01T04:20:55.009Z,59.30
2018-07-01T04:21:55.025Z,58.72
2018-07-01T04:22:55.042Z,58.44
2018-07-01T04:23:55.055Z,58.15
2018-07-01T04:24:55.075Z,58.34
2018-07-01T04:25:55.088Z,58.24
2018-07-01T04:26:55.101Z,58.62
2018-07-01T04:27:55.116Z,58.72
2018-07-01T04:28:55.183Z,59.01
2018-07-01T04:30:55.221Z,58.91
2018-07-01T04:31:55.180Z,59.11
2018-07-01T04:32:55.205Z,59.11
2018-07-01T04:33:55.264Z,58.91
2018-07-01T04:34:55.488Z,58.46
2018-07-01T04:35:55.329Z,58.37
2018-07-01T04:36:55.262Z,58.75
2018-07-01T04:37:55.274Z,58.46
2018-07-01T04:38:55.299Z,58.37
2018-07-01T04:39:55.303Z,58.27
2018-07-01T04:40:55.328Z,57.89
2018-07-01T04:41:55.333Z,58.37
2018-07-01T04:42:55.349Z,58.65
2018-07-01T04:43:55.376Z,58.37
2018-07-01T04:44:55.395Z,58.08
2018-07-01T04:45:55.394Z,57.79
2018-07-01T04:46:55.411Z,57.70
2018-07-01T04:47:55.428Z,58.37
2018-07-01T04:48:55.441Z,58.65
2018-07-01T04:49:55.458Z,58.17
2018-07-01T04:50:55.474Z,58.27
2018-07-01T04:51:55.540Z,57.41
2018-07-01T04:52:55.507Z,57.41
2018-07-01T04:53:55.536Z,58.37
2018-07-01T04:54:55.554Z,58.08
2018-07-01T04:55:55.554Z,57.53
2018-07-01T04:56:55.568Z,57.60
2018-07-01T04:57:55.592Z,57.15
2018-07-01T04:58:55.611Z,57.53
2018-07-01T04:59:55.612Z,57.63
2018-07-01T05:00:55.629Z,57.15
2018-07-01T05:01:55.723Z,57.24
2018-07-01T05:02:55.660Z,57.06
2018-07-01T05:03:55.687Z,57.15
2018-07-01T05:04:55.864Z,57.06
2018-07-01T05:05:55.785Z,57.24
2018-07-01T05:06:55.757Z,57.34
2018-07-01T05:07:55.752Z,57.34
2018-07-01T05:08:55.783Z,57.43
2018-07-01T05:09:55.916Z,57.43
2018-07-01T05:10:55.915Z,57.24
2018-07-01T05:11:55.834Z,57.53
2018-07-01T05:12:55.909Z,57.53
2018-07-01T05:13:55.836Z,57.34
2018-07-01T05:14:55.851Z,57.06
2018-07-01T05:15:55.866Z,57.53
2018-07-01T05:16:55.880Z,58.01
2018-07-01T05:17:55.895Z,56.96
2018-07-01T05:18:55.915Z,56.38
2018-07-01T05:19:55.968Z,56.38
2018-07-01T05:20:55.947Z,56.89
2018-07-01T05:21:55.963Z,57.37
2018-07-01T05:22:55.983Z,56.79
2018-07-01T05:23:55.994Z,56.22
2018-07-01T05:24:56.008Z,55.83
2018-07-01T05:25:56.048Z,55.64
2018-07-01T05:26:56.053Z,55.74
2018-07-01T05:27:56.067Z,56.02
2018-07-01T05:28:56.072Z,55.45
2018-07-01T05:29:56.087Z,55.74
2018-07-01T05:30:56.123Z,55.83
2018-07-01T05:31:56.137Z,55.93
2018-07-01T05:32:56.137Z,55.74
2018-07-01T05:33:56.158Z,55.96
2018-07-01T05:34:56.214Z,55.67
2018-07-01T05:35:56.189Z,55.16
2018-07-01T05:36:56.283Z,55.83
2018-07-01T05:37:56.252Z,55.96
2018-07-01T05:38:56.247Z,55.67
2018-07-01T05:39:56.248Z,55.10
2018-07-01T05:40:56.272Z,54.80
2018-07-01T05:41:56.384Z,54.71
2018-07-01T05:42:56.292Z,54.61
2018-07-01T05:43:56.309Z,54.61
2018-07-01T05:44:56.326Z,55.00
2018-07-01T05:45:56.343Z,55.00
2018-07-01T05:46:56.368Z,55.10
2018-07-01T05:47:56.375Z,54.90
2018-07-01T05:48:56.388Z,54.71
2018-07-01T05:49:56.401Z,55.96
2018-07-01T05:50:56.419Z,54.83
2018-07-01T05:51:56.436Z,54.74
2018-07-01T05:52:56.480Z,54.23
2018-07-01T05:53:56.467Z,54.71
2018-07-01T05:54:56.485Z,54.64
2018-07-01T05:55:56.508Z,54.74
2018-07-01T05:56:56.512Z,53.97
2018-07-01T05:57:56.529Z,53.68
2018-07-01T05:58:56.564Z,54.25
2018-07-01T05:59:56.564Z,53.97
2018-07-01T06:00:56.591Z,54.16
2018-07-01T06:01:56.614Z,54.16
2018-07-01T06:02:56.631Z,54.93
2018-07-01T06:03:56.629Z,54.06
2018-07-01T06:04:56.643Z,54.25
2018-07-01T06:05:56.678Z,53.87
2018-07-01T06:06:56.671Z,53.30
2018-07-01T06:07:57.100Z,53.11
2018-07-01T06:08:56.747Z,53.30
2018-07-01T06:09:56.767Z,53.68
2018-07-01T06:10:56.837Z,53.13
2018-07-01T06:11:56.860Z,53.13
2018-07-01T06:12:56.817Z,52.91
2018-07-01T06:13:56.850Z,52.84
2018-07-01T06:14:56.909Z,53.42
2018-07-01T06:15:56.814Z,53.42
2018-07-01T06:16:56.830Z,52.84
2018-07-01T06:17:56.872Z,52.55
2018-07-01T06:18:56.862Z,51.69
2018-07-01T06:19:56.887Z,51.31
2018-07-01T06:20:56.893Z,51.98
2018-07-01T06:21:56.910Z,52.26
2018-07-01T06:22:56.938Z,52.26
2018-07-01T06:23:56.943Z,51.69
2018-07-01T06:24:56.958Z,51.69
2018-07-01T06:25:57.013Z,51.88
2018-07-01T06:26:56.993Z,51.33
2018-07-01T06:27:57.007Z,51.43
2018-07-01T06:28:57.021Z,51.43
2018-07-01T06:29:57.050Z,51.23
2018-07-01T06:30:57.056Z,51.33
2018-07-01T06:31:57.121Z,51.33
2018-07-01T06:32:57.170Z,51.04
2018-07-01T06:33:57.106Z,50.27
2018-07-01T06:34:57.117Z,50.85
2018-07-01T06:35:57.137Z,49.51
2018-07-01T06:36:57.202Z,49.51
2018-07-01T06:37:57.170Z,49.99
2018-07-01T06:38:57.184Z,49.51
2018-07-01T06:39:57.248Z,49.82
2018-07-01T06:40:57.434Z,49.82
2018-07-01T06:41:57.285Z,49.15
2018-07-01T06:42:57.241Z,48.85
2018-07-01T06:43:57.270Z,49.15
2018-07-01T06:44:57.477Z,49.33
2018-07-01T06:45:57.288Z,48.66
2018-07-01T06:46:57.538Z,48.66
2018-07-01T06:47:57.320Z,49.05
2018-07-01T06:48:57.337Z,49.15
2018-07-01T06:49:57.351Z,48.66
2018-07-01T06:50:57.370Z,48.76
2018-07-01T06:51:57.385Z,48.76
2018-07-01T06:52:57.413Z,48.47
2018-07-01T06:53:57.419Z,48.95
2018-07-01T06:54:57.434Z,48.59
2018-07-01T06:55:57.449Z,47.61
2018-07-01T06:56:57.465Z,47.53
2018-07-01T06:57:57.489Z,47.03
2018-07-01T06:58:57.497Z,46.95
2018-07-01T06:59:57.517Z,47.05
2018-07-01T07:00:57.530Z,46.86
2018-07-01T07:01:57.555Z,46.19
2018-07-01T07:02:57.563Z,46.09
2018-07-01T07:03:57.579Z,45.80
2018-07-01T07:04:57.596Z,45.90
2018-07-01T07:05:57.614Z,45.61
2018-07-01T07:06:57.740Z,45.51
2018-07-01T07:07:57.695Z,44.96
2018-07-01T07:08:57.658Z,44.38
2018-07-01T07:09:57.675Z,44.28
2018-07-01T07:10:57.689Z,44.28
2018-07-01T07:11:57.769Z,43.13
2018-07-01T07:12:57.728Z,42.74
2018-07-01T07:13:57.761Z,43.41
2018-07-01T07:14:57.756Z,43.80
2018-07-01T07:15:57.773Z,42.55
2018-07-01T07:16:57.814Z,42.26
2018-07-01T07:17:57.866Z,41.88
2018-07-01T07:18:57.839Z,41.78
2018-07-01T07:19:57.844Z,41.59
2018-07-01T07:20:57.855Z,41.89
2018-07-01T07:21:57.872Z,41.61
2018-07-01T07:22:57.888Z,41.78
2018-07-01T07:23:57.904Z,41.22
2018-07-01T07:24:57.922Z,40.74
2018-07-01T07:25:57.942Z,40.94
2018-07-01T07:26:57.950Z,41.22
2018-07-01T07:27:57.968Z,40.94
2018-07-01T07:28:57.990Z,40.07
2018-07-01T07:29:58.486Z,40.36
2018-07-01T07:30:58.020Z,40.16
2018-07-01T07:31:58.072Z,39.59
2018-07-01T07:32:58.124Z,39.68
2018-07-01T07:33:58.069Z,38.81
2018-07-01T07:34:58.083Z,38.81
2018-07-01T07:35:58.429Z,38.53
2018-07-01T07:36:58.174Z,38.81
2018-07-01T07:37:58.154Z,38.91
2018-07-01T07:38:58.173Z,38.33
2018-07-01T07:39:58.244Z,38.62
2018-07-01T07:40:58.184Z,39.01
2018-07-01T07:41:58.229Z,39.87
2018-07-01T07:42:58.290Z,39.29
2018-07-01T07:43:58.393Z,38.72
2018-07-01T07:44:58.341Z,39.01
2018-07-01T07:45:58.336Z,39.11
2018-07-01T07:46:58.311Z,38.54
2018-07-01T07:47:58.294Z,38.54
2018-07-01T07:48:58.412Z,38.06
2018-07-01T07:49:58.332Z,37.77
2018-07-01T07:50:58.344Z,38.06
2018-07-01T07:52:58.380Z,38.64
2018-07-01T07:53:58.502Z,38.64
2018-07-01T07:54:58.440Z,38.35
2018-07-01T07:55:58.428Z,38.06
2018-07-01T07:56:58.441Z,38.35
2018-07-01T07:57:58.465Z,38.26
2018-07-01T07:58:58.475Z,38.35
2018-07-01T07:59:58.494Z,37.87
2018-07-01T08:00:58.505Z,36.71
2018-07-01T08:01:58.689Z,37.01
2018-07-01T08:02:58.761Z,37.01
2018-07-01T08:03:58.563Z,37.39
2018-07-01T08:04:58.575Z,37.10
2018-07-01T08:05:58.588Z,36.91
2018-07-01T08:06:58.631Z,36.33
2018-07-01T08:07:58.692Z,36.71
2018-07-01T08:08:58.640Z,36.71
2018-07-01T08:09:58.662Z,36.52
2018-07-01T08:10:58.673Z,36.71
2018-07-01T08:11:58.690Z,36.61
2018-07-01T08:12:58.735Z,36.83
2018-07-01T08:13:58.725Z,36.73
2018-07-01T08:14:58.813Z,36.63
2018-07-01T08:15:58.855Z,36.63
2018-07-01T08:16:58.773Z,36.36
2018-07-01T08:17:58.812Z,36.07
2018-07-01T08:18:58.949Z,35.69
2018-07-01T08:19:58.820Z,35.58
2018-07-01T08:20:58.896Z,35.38
2018-07-01T08:21:58.928Z,35.10
2018-07-01T08:22:58.898Z,35.48
2018-07-01T08:23:58.937Z,35.48
2018-07-01T08:24:59.038Z,35.48
2018-07-01T08:25:59.003Z,35.96
2018-07-01T08:26:58.945Z,35.58
2018-07-01T08:27:58.963Z,35.48
2018-07-01T08:28:58.992Z,35.38
2018-07-01T08:29:58.989Z,35.96
2018-07-01T08:30:59.057Z,35.86
2018-07-01T08:31:59.028Z,35.10
2018-07-01T08:32:59.041Z,34.32
2018-07-01T08:33:59.051Z,34.42
2018-07-01T08:34:59.168Z,34.61
2018-07-01T08:35:59.094Z,34.82
2018-07-01T08:36:59.179Z,34.22
2018-07-01T08:37:59.118Z,34.22
2018-07-01T08:38:59.188Z,34.52
2018-07-01T08:39:59.175Z,34.52
2018-07-01T08:40:59.168Z,34.61
2018-07-01T08:41:59.186Z,34.80
2018-07-01T08:42:59.202Z,34.52
2018-07-01T08:43:59.223Z,34.63
2018-07-01T08:44:59.263Z,35.02
2018-07-01T08:45:59.251Z,34.63
2018-07-01T08:46:59.267Z,34.45
2018-07-01T08:47:59.438Z,34.44
2018-07-01T08:48:59.394Z,34.44
2018-07-01T08:49:59.318Z,35.02
2018-07-01T08:50:59.538Z,35.02
2018-07-01T08:51:59.741Z,35.02
2018-07-01T08:52:59.826Z,35.03
2018-07-01T08:53:59.397Z,34.84
2018-07-01T08:54:59.414Z,34.34
2018-07-01T08:55:59.448Z,34.72
2018-07-01T08:56:59.434Z,34.64
2018-07-01T08:57:59.474Z,34.45
2018-07-01T08:58:59.506Z,34.36
2018-07-01T08:59:59.570Z,34.45
2018-07-01T09:00:59.501Z,34.16
2018-07-01T09:01:59.521Z,34.06
2018-07-01T09:02:59.534Z,34.36
2018-07-01T09:03:59.556Z,34.45
2018-07-01T09:04:59.571Z,35.22
2018-07-01T09:05:59.621Z,34.26
2018-07-01T09:06:59.650Z,34.06
2018-07-01T09:07:59.618Z,33.31
2018-07-01T09:08:59.642Z,33.02
2018-07-01T09:09:59.651Z,32.23
2018-07-01T09:10:59.678Z,33.02
2018-07-01T09:11:59.747Z,32.82
2018-07-01T09:12:59.700Z,32.92
2018-07-01T09:13:59.782Z,33.02
2018-07-01T09:14:59.736Z,32.73
2018-07-01T09:15:59.753Z,32.33
2018-07-01T09:16:59.844Z,32.23
2018-07-01T09:17:59.787Z,32.71
2018-07-01T09:18:59.804Z,32.23
2018-07-01T09:19:59.879Z,32.81
2018-07-01T09:20:59.835Z,32.14
2018-07-01T09:21:59.850Z,31.37
2018-07-01T09:22:59.871Z,31.46
2018-07-01T09:23:59.889Z,31.56
2018-07-01T09:24:59.906Z,32.52
2018-07-01T09:26:00.067Z,31.67
2018-07-01T09:26:59.936Z,31.37
2018-07-01T09:27:59.952Z,31.75
2018-07-01T09:29:00.119Z,32.24
2018-07-01T09:29:59.990Z,31.67
2018-07-01T09:31:00.335Z,31.85
2018-07-01T09:32:00.058Z,31.75
2018-07-01T09:33:00.043Z,31.86
2018-07-01T09:34:00.069Z,31.38
2018-07-01T09:35:00.079Z,31.28
2018-07-01T09:36:00.091Z,31.18
2018-07-01T09:37:00.104Z,30.80
2018-07-01T09:38:00.120Z,31.18
2018-07-01T09:39:00.139Z,31.18
2018-07-01T09:40:00.158Z,30.90
2018-07-01T09:41:00.173Z,31.17
2018-07-01T09:42:00.188Z,31.46
2018-07-01T09:43:00.209Z,31.46
2018-07-01T09:44:00.234Z,31.75
2018-07-01T09:45:00.238Z,31.56
2018-07-01T09:46:00.254Z,31.46
2018-07-01T09:47:00.275Z,31.67
2018-07-01T09:48:00.309Z,31.48
2018-07-01T09:49:00.312Z,31.40
2018-07-01T09:50:00.327Z,31.49
2018-07-01T09:51:00.338Z,31.10
2018-07-01T09:52:00.375Z,31.40
2018-07-01T09:53:00.886Z,31.40
2018-07-01T09:54:00.417Z,31.20
2018-07-01T09:55:00.452Z,31.20
2018-07-01T09:56:00.423Z,31.78
2018-07-01T09:57:00.448Z,31.78
2018-07-01T09:58:00.464Z,31.20
2018-07-01T09:59:00.525Z,31.20
2018-07-01T10:00:00.522Z,31.78
2018-07-01T10:01:00.550Z,31.68
2018-07-01T10:02:00.524Z,31.68
2018-07-01T10:03:00.545Z,31.10
2018-07-01T10:04:00.556Z,30.35
2018-07-01T10:05:00.574Z,30.82
2018-07-01T10:06:00.617Z,31.22
2018-07-01T10:07:00.664Z,31.51
2018-07-01T10:08:00.628Z,30.35
2018-07-01T10:09:00.667Z,29.67
2018-07-01T10:10:00.699Z,29.09
2018-07-01T10:11:00.683Z,29.77
2018-07-01T10:12:00.708Z,29.47
2018-07-01T10:13:00.769Z,29.77
2018-07-01T10:14:00.763Z,30.05
2018-07-01T10:15:00.779Z,30.15
2018-07-01T10:16:00.763Z,29.85
2018-07-01T10:17:00.788Z,30.93
2018-07-01T10:18:00.798Z,30.25
2018-07-01T10:19:00.819Z,29.96
2018-07-01T10:20:00.833Z,29.94
2018-07-01T10:21:00.853Z,30.52
2018-07-01T10:22:00.878Z,30.14
2018-07-01T10:23:00.880Z,30.93
2018-07-01T10:24:00.898Z,30.35
2018-07-01T10:25:00.915Z,30.35
2018-07-01T10:26:00.937Z,30.15
2018-07-01T10:27:00.949Z,30.15
2018-07-01T10:28:00.966Z,30.54
2018-07-01T10:29:00.983Z,30.75
2018-07-01T10:30:01.003Z,30.35
2018-07-01T10:31:01.142Z,30.83
2018-07-01T10:32:01.123Z,30.93
2018-07-01T10:33:01.054Z,30.83
2018-07-01T10:34:01.071Z,30.36
2018-07-01T10:35:01.089Z,30.55
2018-07-01T10:36:01.104Z,30.54
2018-07-01T10:37:01.120Z,30.36
2018-07-01T10:39:01.161Z,30.36
2018-07-01T10:40:01.301Z,30.38
2018-07-01T10:41:01.189Z,30.28
2018-07-01T10:42:01.205Z,29.32
2018-07-01T10:43:01.223Z,29.70
2018-07-01T10:44:01.244Z,29.41
2018-07-01T10:45:01.275Z,29.70
2018-07-01T10:46:01.274Z,29.60
2018-07-01T10:47:01.304Z,29.22
2018-07-01T10:48:01.325Z,29.20
2018-07-01T10:49:01.326Z,28.81
2018-07-01T10:50:01.340Z,29.32
2018-07-01T10:51:01.366Z,28.52
2018-07-01T10:52:01.378Z,27.94
2018-07-01T10:53:01.393Z,28.14
2018-07-01T10:54:01.410Z,28.23
2018-07-01T10:55:01.428Z,28.91
2018-07-01T10:56:01.465Z,28.72
2018-07-01T10:57:01.473Z,28.81
2018-07-01T10:58:01.486Z,29.30
2018-07-01T10:59:01.518Z,28.52
2018-07-01T11:00:01.514Z,29.59
2018-07-01T11:01:01.530Z,29.30
2018-07-01T11:02:01.551Z,29.59
2018-07-01T11:03:01.567Z,29.12
2018-07-01T11:04:01.584Z,27.96
2018-07-01T11:05:01.608Z,28.52
2018-07-01T11:06:01.734Z,28.62
2018-07-01T11:07:01.672Z,29.69
2018-07-01T11:08:01.651Z,28.91
2018-07-01T11:09:01.668Z,29.39
2018-07-01T11:10:01.686Z,30.07
2018-07-01T11:11:01.738Z,30.38
2018-07-01T11:12:01.744Z,29.70
2018-07-01T11:13:02.034Z,30.10
2018-07-01T11:14:01.867Z,29.33
2018-07-01T11:15:01.933Z,28.65
2018-07-01T11:16:01.892Z,28.85
2018-07-01T11:17:01.824Z,29.22
2018-07-01T11:18:01.828Z,29.41
2018-07-01T11:19:01.852Z,29.80
2018-07-01T11:20:01.863Z,29.33
2018-07-01T11:21:01.878Z,29.03
2018-07-01T11:22:01.903Z,30.20
2018-07-01T11:23:01.914Z,29.33
2018-07-01T11:24:01.929Z,29.12
2018-07-01T11:25:01.977Z,29.50
2018-07-01T11:26:01.963Z,29.22
2018-07-01T11:27:02.464Z,29.60
2018-07-01T11:28:02.006Z,29.91
2018-07-01T11:29:02.016Z,29.23
2018-07-01T11:30:02.037Z,28.94
2018-07-01T11:31:02.049Z,30.10
2018-07-01T11:32:02.072Z,29.63
2018-07-01T11:33:02.102Z,28.75
2018-07-01T11:34:02.128Z,28.65
2018-07-01T11:35:02.127Z,28.55
2018-07-01T11:36:02.141Z,28.94
2018-07-01T11:37:02.157Z,29.22
2018-07-01T11:38:02.284Z,28.75
2018-07-01T11:39:02.193Z,28.36
2018-07-01T11:40:02.236Z,28.65
2018-07-01T11:41:02.225Z,29.15
2018-07-01T11:42:02.243Z,28.66
2018-07-01T11:43:02.263Z,27.40
2018-07-01T11:44:02.279Z,27.50
2018-07-01T11:45:02.320Z,26.92
2018-07-01T11:46:02.313Z,26.73
2018-07-01T11:47:02.365Z,27.32
2018-07-01T11:48:02.357Z,26.54
2018-07-01T11:49:02.618Z,26.64
2018-07-01T11:50:02.481Z,26.92
2018-07-01T11:51:02.438Z,26.54
2018-07-01T11:52:02.485Z,26.43
2018-07-01T11:53:02.447Z,27.01
2018-07-01T11:54:02.459Z,27.60
2018-07-01T11:55:02.493Z,27.42
2018-07-01T11:56:02.497Z,28.29
2018-07-01T11:57:02.512Z,27.13
2018-07-01T11:58:02.557Z,27.22
2018-07-01T11:59:02.542Z,27.03
2018-07-01T12:00:02.648Z,27.51
2018-07-01T12:01:02.577Z,26.35
2018-07-01T12:02:02.651Z,26.25
2018-07-01T12:03:02.618Z,26.14
2018-07-01T12:04:02.645Z,26.23
2018-07-01T12:05:16.202Z,26.43
2018-07-01T12:06:02.671Z,26.92
2018-07-01T12:07:02.691Z,26.34
2018-07-01T12:08:02.707Z,26.73
2018-07-01T12:09:02.721Z,27.70
2018-07-01T12:10:02.741Z,26.15
2018-07-01T12:11:02.781Z,26.15
2018-07-01T12:12:02.879Z,26.35
2018-07-01T12:13:02.799Z,26.26
2018-07-01T12:14:02.813Z,25.87
2018-07-01T12:15:02.824Z,26.05
2018-07-01T12:16:02.846Z,26.54
2018-07-01T12:17:02.862Z,26.35
2018-07-01T12:18:02.884Z,25.38
2018-07-01T12:19:02.898Z,25.30
2018-07-01T12:20:02.966Z,25.40
2018-07-01T12:21:03.040Z,25.40
2018-07-01T12:22:02.954Z,25.10
2018-07-01T12:23:02.974Z,25.40
2018-07-01T12:24:02.987Z,25.59
2018-07-01T12:25:03.004Z,25.98
2018-07-01T12:26:03.024Z,27.35
2018-07-01T12:27:03.049Z,26.38
2018-07-01T12:28:03.060Z,25.81
2018-07-01T12:29:03.075Z,25.32
2018-07-01T12:30:03.099Z,25.13
2018-07-01T12:31:03.112Z,25.34
2018-07-01T12:32:03.134Z,26.31
2018-07-01T12:33:03.156Z,25.24
2018-07-01T12:34:03.170Z,24.66
2018-07-01T12:35:03.201Z,24.85
2018-07-01T12:36:03.210Z,24.56
2018-07-01T12:37:03.246Z,24.85
2018-07-01T12:38:03.243Z,23.77
2018-07-01T12:39:03.263Z,24.74
2018-07-01T12:40:03.314Z,24.83
2018-07-01T12:41:03.303Z,25.32
2018-07-01T12:42:03.360Z,25.12
2018-07-01T12:43:03.345Z,26.39
2018-07-01T12:44:03.366Z,25.89
2018-07-01T12:45:03.391Z,25.31
2018-07-01T12:46:03.423Z,25.98
2018-07-01T12:47:03.464Z,27.45
2018-07-01T12:48:03.576Z,26.29
2018-07-01T12:49:03.474Z,26.32
2018-07-01T12:50:03.498Z,25.05
2018-07-01T12:51:03.517Z,23.79
2018-07-01T12:52:03.539Z,23.71
2018-07-01T12:53:03.586Z,24.78
2018-07-01T12:54:03.735Z,23.71
2018-07-01T12:55:03.764Z,23.52
2018-07-01T12:56:03.635Z,24.10
2018-07-01T12:57:03.669Z,25.27
2018-07-01T12:58:03.680Z,25.19
2018-07-01T12:59:03.708Z,23.65
2018-07-01T13:00:03.732Z,23.94